createdAt,value
2022-10-12T00:01:31.066Z,97105.66
2022-10-12T00:03:56.850Z,97098.56
2022-10-12T00:06:23.956Z,97111.69
2022-10-12T00:08:51.904Z,97108.09
2022-10-12T00:11:21.137Z,97110.13
2022-10-12T00:13:47.028Z,97111.69
2022-10-12T00:16:14.750Z,97113.03
2022-10-12T00:18:40.633Z,97105.84
2022-10-12T00:21:09.607Z,97117.13
2022-10-12T00:23:37.085Z,97116.72
2022-10-12T00:26:23.699Z,97111.44
2022-10-12T00:28:54.610Z,97115.63
2022-10-12T00:31:20.946Z,97113.28
2022-10-12T00:33:47.566Z,97112.31
2022-10-12T00:36:26.674Z,97110.41
2022-10-12T00:38:54.503Z,97113.59
2022-10-12T00:41:24.610Z,97110.91
2022-10-12T00:43:56.784Z,97103.94
2022-10-12T00:46:36.940Z,97116.06
2022-10-12T00:49:19.699Z,97109.72
2022-10-12T00:51:50.449Z,97106.84
2022-10-12T00:54:21.635Z,97105.91
2022-10-12T00:56:50.447Z,97106.47
2022-10-12T00:59:21.778Z,97112.97
2022-10-12T01:01:47.703Z,97110.69
2022-10-12T01:04:13.896Z,97107.25
2022-10-12T01:06:40.368Z,97109.31
2022-10-12T01:09:06.147Z,97110.25
2022-10-12T01:11:31.870Z,97106.03
2022-10-12T01:13:57.867Z,97111.91
2022-10-12T01:16:45.928Z,97109.88
2022-10-12T01:19:17.650Z,97107.06
2022-10-12T01:21:51.900Z,97117.16
2022-10-12T01:25:01.046Z,97109.63
2022-10-12T01:27:43.307Z,97107.63
2022-10-12T01:30:11.830Z,97103.94
2022-10-12T01:33:21.715Z,97101.31
2022-10-12T01:36:01.810Z,97098.44
2022-10-12T01:38:52.984Z,97098.00
2022-10-12T01:41:29.410Z,97094.50
2022-10-12T01:43:55.179Z,97093.03
2022-10-12T01:46:20.897Z,97085.53
2022-10-12T01:48:50.617Z,97090.81
2022-10-12T01:51:24.101Z,97078.97
2022-10-12T01:54:02.803Z,97080.53
2022-10-12T01:56:47.469Z,97076.34
2022-10-12T01:59:23.788Z,97079.44
2022-10-12T02:01:54.266Z,97073.53
2022-10-12T02:04:19.944Z,97072.91
2022-10-12T02:06:51.372Z,97067.59
2022-10-12T02:09:23.619Z,97069.72
2022-10-12T02:11:52.615Z,97067.31
2022-10-12T02:14:22.563Z,97070.66
2022-10-12T02:16:57.258Z,97072.00
2022-10-12T02:19:28.114Z,97074.72
2022-10-12T02:21:58.121Z,97065.19
2022-10-12T02:24:24.219Z,97066.88
2022-10-12T02:26:53.008Z,97064.81
2022-10-12T02:29:23.849Z,97058.50
2022-10-12T02:31:55.959Z,97054.88
2022-10-12T02:34:28.624Z,97053.06
2022-10-12T02:37:04.332Z,97042.97
2022-10-12T02:39:41.524Z,97049.63
2022-10-12T02:42:11.807Z,97043.69
2022-10-12T02:44:40.412Z,97037.88
2022-10-12T02:47:08.318Z,97042.03
2022-10-12T02:49:35.939Z,97042.97
2022-10-12T02:52:03.432Z,97037.84
2022-10-12T02:54:29.941Z,97037.34
2022-10-12T02:56:56.129Z,97034.41
2022-10-12T02:59:22.332Z,97035.63
2022-10-12T03:01:48.207Z,97024.63
2022-10-12T03:04:13.993Z,97030.13
2022-10-12T03:06:41.712Z,97022.81
2022-10-12T03:09:08.217Z,97020.91
2022-10-12T03:11:34.078Z,97013.97
2022-10-12T03:14:00.249Z,97018.97
2022-10-12T03:16:26.005Z,97021.06
2022-10-12T03:18:52.009Z,97010.09
2022-10-12T03:21:17.820Z,97012.59
2022-10-12T03:23:43.544Z,97017.84
2022-10-12T03:26:09.478Z,97009.16
2022-10-12T03:28:35.461Z,97009.84
2022-10-12T03:31:02.307Z,97002.25
2022-10-12T03:33:28.153Z,97006.88
2022-10-12T03:35:53.889Z,97003.81
2022-10-12T03:38:19.863Z,96998.16
2022-10-12T03:40:46.037Z,97000.94
2022-10-12T03:43:12.276Z,97000.63
2022-10-12T03:45:38.144Z,97005.72
2022-10-12T03:48:06.134Z,96997.78
2022-10-12T03:50:34.158Z,96995.25
2022-10-12T03:53:01.124Z,96991.66
2022-10-12T03:55:29.639Z,96993.28
2022-10-12T03:57:55.404Z,96998.47
2022-10-12T04:00:21.969Z,96995.34
2022-10-12T04:02:47.755Z,96995.63
2022-10-12T04:05:13.599Z,96989.25
2022-10-12T04:07:39.605Z,96995.00
2022-10-12T04:10:06.227Z,96998.19
2022-10-12T04:12:32.210Z,97000.81
2022-10-12T04:14:57.977Z,97003.38
2022-10-12T04:17:23.696Z,97006.72
2022-10-12T04:19:49.552Z,97001.97
2022-10-12T04:22:15.377Z,96994.59
2022-10-12T04:24:41.174Z,96993.00
2022-10-12T04:27:06.977Z,96994.06
2022-10-12T04:29:32.712Z,96989.41
2022-10-12T04:31:58.562Z,96990.38
2022-10-12T04:34:24.312Z,96984.81
2022-10-12T04:36:50.078Z,96984.25
2022-10-12T04:39:15.847Z,96985.41
2022-10-12T04:41:41.626Z,96981.00
2022-10-12T04:44:07.657Z,96983.84
2022-10-12T04:46:33.986Z,96987.97
2022-10-12T04:48:59.918Z,96985.44
2022-10-12T04:51:26.207Z,96977.50
2022-10-12T04:53:51.956Z,96977.09
2022-10-12T04:56:17.804Z,96973.41
2022-10-12T04:58:43.714Z,96978.38
2022-10-12T05:01:09.731Z,96978.63
2022-10-12T05:03:39.580Z,96975.47
2022-10-12T05:06:07.711Z,96975.66
2022-10-12T05:08:33.463Z,96978.28
2022-10-12T05:10:59.253Z,96972.66
2022-10-12T05:13:26.234Z,96973.22
2022-10-12T05:15:52.392Z,96968.84
2022-10-12T05:18:18.162Z,96965.19
2022-10-12T05:20:43.972Z,96976.09
2022-10-12T05:23:12.684Z,96970.28
2022-10-12T05:25:38.674Z,96970.13
2022-10-12T05:28:04.466Z,96973.28
2022-10-12T05:30:30.213Z,96972.28
2022-10-12T05:32:56.292Z,96971.78
2022-10-12T05:35:22.234Z,96972.34
2022-10-12T05:37:48.022Z,96963.31
2022-10-12T05:40:14.003Z,96970.25
2022-10-12T05:42:40.114Z,96970.53
2022-10-12T05:45:06.687Z,96970.72
2022-10-12T05:47:32.467Z,96981.53
2022-10-12T05:49:58.214Z,96975.78
2022-10-12T05:52:24.062Z,96975.59
2022-10-12T05:54:49.831Z,96973.41
2022-10-12T05:57:15.807Z,96976.69
2022-10-12T05:59:42.347Z,96975.72
2022-10-12T06:02:12.934Z,96977.91
2022-10-12T06:04:38.733Z,96975.53
2022-10-12T06:07:04.479Z,96980.94
2022-10-12T06:09:30.331Z,96983.06
2022-10-12T06:11:56.062Z,96975.31
2022-10-12T06:14:21.786Z,96979.28
2022-10-12T06:16:51.127Z,96977.34
2022-10-12T06:19:20.167Z,96973.03
2022-10-12T06:21:45.912Z,96970.31
2022-10-12T06:24:11.718Z,96978.16
2022-10-12T06:26:37.479Z,96975.63
2022-10-12T06:29:03.311Z,96980.75
2022-10-12T06:31:29.235Z,96973.00
2022-10-12T06:33:55.056Z,96985.16
2022-10-12T06:36:20.849Z,96979.31
2022-10-12T06:38:46.628Z,96991.25
2022-10-12T06:41:12.392Z,96989.91
2022-10-12T06:43:38.168Z,96994.91
2022-10-12T06:46:04.468Z,97000.53
2022-10-12T06:48:30.242Z,97000.00
2022-10-12T06:50:56.009Z,96998.72
2022-10-12T06:53:22.224Z,97002.63
2022-10-12T06:55:48.260Z,96996.41
2022-10-12T06:58:14.167Z,96990.41
2022-10-12T07:00:39.940Z,96992.38
2022-10-12T07:03:05.723Z,96997.69
2022-10-12T07:05:31.519Z,96996.31
2022-10-12T07:07:57.351Z,96997.03
2022-10-12T07:10:24.300Z,96994.59
2022-10-12T07:12:50.074Z,96986.81
2022-10-12T07:15:16.763Z,96982.31
2022-10-12T07:17:42.504Z,96986.22
2022-10-12T07:20:08.389Z,96989.69
2022-10-12T07:22:34.707Z,96989.94
2022-10-12T07:25:00.508Z,96984.78
2022-10-12T07:27:26.315Z,96985.84
2022-10-12T07:29:52.091Z,96998.00
2022-10-12T07:32:17.909Z,96995.81
2022-10-12T07:34:44.231Z,97000.25
2022-10-12T07:37:10.706Z,96997.66
2022-10-12T07:39:37.291Z,96998.91
2022-10-12T07:42:03.297Z,96999.75
2022-10-12T07:44:29.845Z,96992.25
2022-10-12T07:46:55.608Z,96997.91
2022-10-12T07:49:21.384Z,96995.69
2022-10-12T07:51:47.252Z,96995.47
2022-10-12T07:54:18.987Z,96997.50
2022-10-12T07:56:46.278Z,96993.09
2022-10-12T07:59:12.064Z,96995.97
2022-10-12T08:01:37.917Z,96999.63
2022-10-12T08:04:03.902Z,96996.22
2022-10-12T08:06:32.350Z,97000.88
2022-10-12T08:08:59.925Z,96993.81
2022-10-12T08:11:26.373Z,96995.63
2022-10-12T08:13:52.507Z,96996.84
2022-10-12T08:16:20.741Z,96994.84
2022-10-12T08:18:46.540Z,96986.53
2022-10-12T08:21:13.888Z,96993.59
2022-10-12T08:23:40.897Z,96991.13
2022-10-12T08:26:06.812Z,96992.97
2022-10-12T08:28:33.330Z,96996.97
2022-10-12T08:30:59.596Z,96999.19
2022-10-12T08:33:28.606Z,97001.56
2022-10-12T08:35:54.446Z,96999.88
2022-10-12T08:38:20.222Z,96993.16
2022-10-12T08:40:51.570Z,96992.97
2022-10-12T08:43:29.380Z,96982.81
2022-10-12T08:45:57.521Z,96988.41
2022-10-12T08:48:41.917Z,96991.16
2022-10-12T08:51:14.351Z,96986.47
2022-10-12T08:54:04.476Z,96985.59
2022-10-12T08:56:30.607Z,96988.59
2022-10-12T08:58:56.581Z,96992.09
2022-10-12T09:01:28.090Z,96994.03
2022-10-12T09:03:56.812Z,96993.13
2022-10-12T09:06:28.040Z,96986.13
2022-10-12T09:09:17.570Z,96992.31
2022-10-12T09:12:12.997Z,96978.53
2022-10-12T09:14:41.232Z,96986.38
2022-10-12T09:17:41.398Z,96982.81
2022-10-12T09:20:25.382Z,96990.69
2022-10-12T09:22:54.968Z,96982.06
2022-10-12T09:25:26.299Z,96983.38
2022-10-12T09:27:53.533Z,96990.53
2022-10-12T09:30:20.412Z,96979.47
2022-10-12T09:33:17.187Z,97001.84
2022-10-12T09:35:45.275Z,96990.84
2022-10-12T09:38:11.243Z,96989.03
2022-10-12T09:40:38.747Z,96989.31
2022-10-12T09:43:05.636Z,96981.66
2022-10-12T09:45:34.281Z,96982.66
2022-10-12T09:48:14.523Z,96984.09
2022-10-12T09:50:42.644Z,96986.63
2022-10-12T09:53:28.067Z,96988.09
2022-10-12T09:55:57.967Z,96989.16
2022-10-12T09:58:26.303Z,96982.19
2022-10-12T10:01:22.537Z,96984.03
2022-10-12T10:03:51.390Z,96982.59
2022-10-12T10:06:24.514Z,96980.03
2022-10-12T10:08:50.308Z,96983.84
2022-10-12T10:11:22.059Z,96983.91
2022-10-12T10:13:53.046Z,96985.13
2022-10-12T10:16:21.893Z,96985.50
2022-10-12T10:18:53.826Z,96982.81
2022-10-12T10:21:34.655Z,96980.72
2022-10-12T10:24:03.113Z,96995.66
2022-10-12T10:26:54.175Z,96986.38
2022-10-12T10:29:32.039Z,96993.69
2022-10-12T10:32:25.831Z,97000.72
2022-10-12T10:35:01.831Z,96989.91
2022-10-12T10:37:29.825Z,96997.72
2022-10-12T10:39:57.201Z,97006.56
2022-10-12T10:42:29.470Z,97011.28
2022-10-12T10:45:02.897Z,97009.94
2022-10-12T10:47:31.544Z,97004.09
2022-10-12T10:50:00.503Z,97002.50
2022-10-12T10:52:30.681Z,97015.81
2022-10-12T10:55:17.839Z,97005.03
2022-10-12T10:57:58.739Z,97009.66
2022-10-12T11:00:41.125Z,97018.91
2022-10-12T11:03:16.484Z,97012.44
2022-10-12T11:05:47.690Z,97007.56
2022-10-12T11:08:24.051Z,96994.06
2022-10-12T11:10:56.357Z,97003.47
2022-10-12T11:13:33.340Z,97001.66
2022-10-12T11:16:21.882Z,96997.59
2022-10-12T11:18:55.059Z,96995.03
2022-10-12T11:21:42.674Z,96990.94
2022-10-12T11:24:15.076Z,96995.25
2022-10-12T11:27:00.365Z,96996.72
2022-10-12T11:29:26.838Z,96994.19
2022-10-12T11:31:58.350Z,96984.16
2022-10-12T11:34:27.603Z,96985.31
2022-10-12T11:37:18.173Z,96978.44
2022-10-12T11:39:47.199Z,96979.72
2022-10-12T11:42:22.673Z,96977.97
2022-10-12T11:44:49.443Z,96976.59
2022-10-12T11:47:35.359Z,96972.94
2022-10-12T11:50:05.831Z,96977.00
2022-10-12T11:52:43.619Z,96974.19
2022-10-12T11:55:28.145Z,96978.66
2022-10-12T11:57:57.593Z,96975.41
2022-10-12T12:00:32.006Z,96964.63
2022-10-12T12:03:28.091Z,96967.09
2022-10-12T12:05:53.901Z,96963.66
2022-10-12T12:08:42.796Z,96959.63
2022-10-12T12:11:37.633Z,96962.44
2022-10-12T12:14:24.923Z,96955.03
2022-10-12T12:17:13.311Z,96959.16
2022-10-12T12:19:48.551Z,96955.63
2022-10-12T12:22:17.325Z,96957.72
2022-10-12T12:25:20.127Z,96955.97
2022-10-12T12:28:20.180Z,96956.75
2022-10-12T12:30:56.611Z,96950.53
2022-10-12T12:33:32.574Z,96944.31
2022-10-12T12:36:07.038Z,96941.06
2022-10-12T12:38:34.767Z,96940.25
2022-10-12T12:41:02.787Z,96934.56
2022-10-12T12:43:28.512Z,96936.75
2022-10-12T12:46:10.628Z,96942.72
2022-10-12T12:48:42.459Z,96929.47
2022-10-12T12:51:11.762Z,96932.25
2022-10-12T12:53:44.615Z,96927.31
2022-10-12T12:56:36.731Z,96938.28
2022-10-12T12:59:24.026Z,96930.91
2022-10-12T13:02:19.620Z,96930.22
2022-10-12T13:05:22.321Z,96932.28
2022-10-12T13:08:04.644Z,96931.53
2022-10-12T13:10:45.317Z,96923.50
2022-10-12T13:13:48.245Z,96930.50
2022-10-12T13:17:16.638Z,96929.84
2022-10-12T13:19:16.686Z,96916.56
2022-10-12T13:21:52.174Z,96921.66
2022-10-12T13:24:29.842Z,96917.38
2022-10-12T13:27:02.163Z,96906.78
2022-10-12T13:29:47.660Z,96907.88
2022-10-12T13:32:33.305Z,96913.72
2022-10-12T13:35:41.590Z,96909.31
2022-10-12T13:38:13.167Z,96907.13
2022-10-12T13:40:43.615Z,96905.78
2022-10-12T13:43:37.187Z,96899.75
2022-10-12T13:46:04.176Z,96904.13
2022-10-12T13:48:54.317Z,96898.81
2022-10-12T13:51:23.356Z,96895.09
2022-10-12T13:53:49.495Z,96893.63
2022-10-12T13:56:20.405Z,96885.78
2022-10-12T13:58:46.864Z,96881.72
2022-10-12T14:01:13.435Z,96884.69
2022-10-12T14:03:42.528Z,96880.13
2022-10-12T14:06:27.255Z,96869.63
2022-10-12T14:08:56.609Z,96860.81
2022-10-12T14:11:23.173Z,96858.16
2022-10-12T14:13:49.461Z,96855.88
2022-10-12T14:16:15.574Z,96857.88
2022-10-12T14:18:44.126Z,96856.81
2022-10-12T14:21:27.444Z,96848.88
2022-10-12T14:24:16.203Z,96845.84
2022-10-12T14:26:44.118Z,96838.91
2022-10-12T14:29:28.579Z,96840.75
2022-10-12T14:31:57.565Z,96838.56
2022-10-12T14:34:26.031Z,96833.06
2022-10-12T14:37:03.558Z,96842.94
2022-10-12T14:39:30.110Z,96828.28
2022-10-12T14:41:58.442Z,96830.84
2022-10-12T14:44:26.102Z,96816.66
2022-10-12T14:47:01.800Z,96813.72
2022-10-12T14:49:45.509Z,96812.78
2022-10-12T14:52:36.931Z,96811.88
2022-10-12T14:55:03.994Z,96803.22
2022-10-12T14:57:30.885Z,96805.19
2022-10-12T14:59:57.354Z,96806.28
2022-10-12T15:02:29.312Z,96808.59
2022-10-12T15:04:55.765Z,96800.59
2022-10-12T15:07:30.116Z,96796.31
2022-10-12T15:09:56.120Z,96798.03
2022-10-12T15:12:23.567Z,96805.38
2022-10-12T15:14:54.783Z,96804.50
2022-10-12T15:17:21.313Z,96801.34
2022-10-12T15:19:49.136Z,96799.38
2022-10-12T15:22:33.070Z,96798.75
2022-10-12T15:24:58.803Z,96794.47
2022-10-12T15:27:24.548Z,96791.09
2022-10-12T15:29:50.426Z,96796.69
2022-10-12T15:32:18.244Z,96790.81
2022-10-12T15:34:44.223Z,96792.28
2022-10-12T15:37:10.410Z,96786.19
2022-10-12T15:39:36.384Z,96781.81
2022-10-12T15:42:02.428Z,96772.09
2022-10-12T15:44:28.373Z,96781.03
2022-10-12T15:46:54.331Z,96780.38
2022-10-12T15:49:24.062Z,96773.41
2022-10-12T15:51:52.375Z,96782.09
2022-10-12T15:54:18.835Z,96783.81
2022-10-12T15:56:45.014Z,96775.59
2022-10-12T15:59:10.817Z,96769.84
2022-10-12T16:01:37.346Z,96766.00
2022-10-12T16:04:04.760Z,96763.94
2022-10-12T16:06:30.721Z,96766.28
2022-10-12T16:08:56.507Z,96769.50
2022-10-12T16:11:22.337Z,96765.72
2022-10-12T16:13:55.446Z,96759.50
2022-10-12T16:16:22.489Z,96766.63
2022-10-12T16:18:48.433Z,96769.03
2022-10-12T16:21:14.273Z,96775.94
2022-10-12T16:23:40.378Z,96772.50
2022-10-12T16:26:10.575Z,96774.66
2022-10-12T16:28:36.671Z,96775.94
2022-10-12T16:31:11.115Z,96773.84
2022-10-12T16:33:37.327Z,96778.47
2022-10-12T16:36:11.120Z,96771.31
2022-10-12T16:38:36.905Z,96769.50
2022-10-12T16:41:07.719Z,96775.94
2022-10-12T16:43:33.527Z,96772.50
2022-10-12T16:45:59.368Z,96778.34
2022-10-12T16:48:25.353Z,96770.22
2022-10-12T16:50:51.125Z,96766.78
2022-10-12T16:53:16.906Z,96753.19
2022-10-12T16:55:42.683Z,96753.31
2022-10-12T16:58:08.437Z,96753.88
2022-10-12T17:00:34.643Z,96742.41
2022-10-12T17:03:00.750Z,96742.97
2022-10-12T17:05:26.686Z,96748.81
2022-10-12T17:07:52.423Z,96740.91
2022-10-12T17:10:18.201Z,96744.28
2022-10-12T17:12:44.020Z,96751.22
2022-10-12T17:15:09.936Z,96763.66
2022-10-12T17:17:35.831Z,96756.81
2022-10-12T17:22:34.147Z,96772.56
2022-10-12T17:25:00.038Z,96759.59
2022-10-12T17:27:29.986Z,96757.81
2022-10-12T17:29:58.864Z,96755.81
2022-10-12T17:32:25.382Z,96757.41
2022-10-12T17:34:51.260Z,96735.94
2022-10-12T17:37:17.169Z,96751.97
2022-10-12T17:39:45.267Z,96773.75
2022-10-12T17:42:11.809Z,96792.69
2022-10-12T17:44:37.686Z,96793.25
2022-10-12T17:47:03.731Z,96787.78
2022-10-12T17:49:29.716Z,96785.00
2022-10-12T17:51:55.627Z,96778.31
2022-10-12T17:54:25.583Z,96781.19
2022-10-12T17:56:52.580Z,96791.25
2022-10-12T17:59:18.899Z,96800.88
2022-10-12T18:01:45.161Z,96801.91
2022-10-12T18:04:12.176Z,96808.06
2022-10-12T18:06:38.494Z,96808.06
2022-10-12T18:09:06.212Z,96803.81
2022-10-12T18:11:32.457Z,96817.81
2022-10-12T18:13:58.228Z,96804.59
2022-10-12T18:16:27.069Z,96810.28
2022-10-12T18:18:54.351Z,96824.59
2022-10-12T18:21:23.126Z,96813.00
2022-10-12T18:23:50.059Z,96809.72
2022-10-12T18:26:19.230Z,96815.78
2022-10-12T18:28:52.771Z,96820.19
2022-10-12T18:31:21.291Z,96813.16
2022-10-12T18:33:47.707Z,96817.63
2022-10-12T18:36:15.340Z,96815.88
2022-10-12T18:38:41.481Z,96814.78
2022-10-12T18:41:09.568Z,96811.31
2022-10-12T18:43:35.998Z,96792.53
2022-10-12T18:46:11.002Z,96803.56
2022-10-12T18:48:37.214Z,96804.28
2022-10-12T18:51:27.931Z,96805.25
2022-10-12T18:53:55.180Z,96789.97
2022-10-12T18:56:20.999Z,96792.53
2022-10-12T18:58:47.257Z,96802.84
2022-10-12T19:01:19.574Z,96800.06
2022-10-12T19:03:46.415Z,96795.50
2022-10-12T19:06:14.936Z,96784.00
2022-10-12T19:08:42.840Z,96794.94
2022-10-12T19:11:13.609Z,96792.22
2022-10-12T19:13:40.931Z,96791.41
2022-10-12T19:16:09.977Z,96787.09
2022-10-12T19:18:37.126Z,96789.41
2022-10-12T19:21:05.739Z,96787.00
2022-10-12T19:23:31.548Z,96780.72
2022-10-12T19:26:05.515Z,96777.69
2022-10-12T19:28:31.813Z,96767.44
2022-10-12T19:30:58.108Z,96774.44
2022-10-12T19:33:26.136Z,96775.31
2022-10-12T19:35:52.400Z,96776.06
2022-10-12T19:38:19.735Z,96780.72
2022-10-12T19:40:46.126Z,96769.25
2022-10-12T19:43:12.329Z,96766.38
2022-10-12T19:45:39.569Z,96770.19
2022-10-12T19:48:06.213Z,96770.63
2022-10-12T19:50:32.638Z,96766.69
2022-10-12T19:52:58.693Z,96768.75
2022-10-12T19:55:24.704Z,96760.25
2022-10-12T19:57:50.844Z,96764.78
2022-10-12T20:00:17.802Z,96769.16
2022-10-12T20:02:43.920Z,96764.03
2022-10-12T20:05:10.800Z,96758.19
2022-10-12T20:07:37.066Z,96760.38
2022-10-12T20:10:05.116Z,96753.97
2022-10-12T20:12:31.238Z,96755.19
2022-10-12T20:14:57.399Z,96746.91
2022-10-12T20:17:23.193Z,96748.81
2022-10-12T20:19:49.929Z,96750.59
2022-10-12T20:22:16.420Z,96754.00
2022-10-12T20:24:42.643Z,96751.06
2022-10-12T20:27:08.480Z,96751.97
2022-10-12T20:29:34.496Z,96754.97
2022-10-12T20:32:00.711Z,96749.19
2022-10-12T20:34:26.570Z,96742.31
2022-10-12T20:36:52.413Z,96760.38
2022-10-12T20:39:18.700Z,96755.75
2022-10-12T20:41:44.522Z,96754.97
2022-10-12T20:44:10.893Z,96755.09
2022-10-12T20:46:36.704Z,96754.44
2022-10-12T20:49:03.480Z,96748.72
2022-10-12T20:51:35.321Z,96747.56
2022-10-12T20:54:03.322Z,96752.16
2022-10-12T20:56:31.408Z,96750.44
2022-10-12T20:58:58.042Z,96759.56
2022-10-12T21:01:25.455Z,96761.38
2022-10-12T21:03:52.715Z,96761.63
2022-10-12T21:06:20.703Z,96756.84
2022-10-12T21:08:51.376Z,96760.22
2022-10-12T21:11:17.851Z,96756.00
2022-10-12T21:13:45.261Z,96760.41
2022-10-12T21:16:12.617Z,96757.88
2022-10-12T21:18:39.539Z,96759.47
2022-10-12T21:21:10.813Z,96764.97
2022-10-12T21:23:37.268Z,96765.50
2022-10-12T21:26:17.461Z,96762.25
2022-10-12T21:28:44.761Z,96762.69
2022-10-12T21:31:11.953Z,96754.00
2022-10-12T21:33:38.498Z,96757.66
2022-10-12T21:36:12.877Z,96748.59
2022-10-12T21:38:39.515Z,96757.78
2022-10-12T21:41:07.424Z,96762.19
2022-10-12T21:43:34.466Z,96763.13
2022-10-12T21:46:29.806Z,96765.75
2022-10-12T21:48:56.040Z,96757.63
2022-10-12T21:51:23.165Z,96755.56
2022-10-12T21:53:50.146Z,96760.38
2022-10-12T21:56:22.425Z,96755.75
2022-10-12T21:58:49.660Z,96754.34
2022-10-12T22:01:20.919Z,96755.50
2022-10-12T22:03:49.502Z,96747.59
2022-10-12T22:06:17.563Z,96750.13
2022-10-12T22:08:44.410Z,96744.44
2022-10-12T22:11:12.107Z,96745.59
2022-10-12T22:13:38.207Z,96745.13
2022-10-12T22:16:07.560Z,96741.03
2022-10-12T22:18:34.001Z,96753.44
2022-10-12T22:21:10.575Z,96752.06
2022-10-12T22:23:36.497Z,96745.28
2022-10-12T22:26:06.147Z,96745.97
2022-10-12T22:28:32.268Z,96745.88
2022-10-12T22:30:58.083Z,96761.22
2022-10-12T22:33:23.977Z,96747.66
2022-10-12T22:35:57.976Z,96742.31
2022-10-12T22:38:24.398Z,96746.84
2022-10-12T22:40:58.264Z,96744.44
2022-10-12T22:43:28.832Z,96743.44
2022-10-12T22:45:54.955Z,96740.44
2022-10-12T22:48:21.493Z,96736.41
2022-10-12T22:50:47.776Z,96732.72
2022-10-12T22:53:15.234Z,96731.47
2022-10-12T22:55:42.567Z,96721.75
2022-10-12T22:58:08.271Z,96725.34
2022-10-12T23:00:34.085Z,96723.75
2022-10-12T23:02:59.942Z,96717.50
2022-10-12T23:05:25.937Z,96720.13
2022-10-12T23:07:52.012Z,96715.53
2022-10-12T23:10:18.589Z,96725.63
2022-10-12T23:12:44.322Z,96725.63
2022-10-12T23:15:10.342Z,96727.72
2022-10-12T23:17:36.123Z,96724.69
2022-10-12T23:20:03.288Z,96715.91
2022-10-12T23:22:29.227Z,96711.63
2022-10-12T23:24:54.998Z,96716.03
2022-10-12T23:27:20.865Z,96712.16
2022-10-12T23:29:46.939Z,96713.69
2022-10-12T23:32:13.059Z,96715.41
2022-10-12T23:34:38.935Z,96707.16
2022-10-12T23:37:04.834Z,96709.34
2022-10-12T23:39:30.866Z,96708.38
2022-10-12T23:41:56.699Z,96707.03
2022-10-12T23:44:22.559Z,96711.81
2022-10-12T23:46:48.401Z,96711.75
2022-10-12T23:49:14.273Z,96705.63
2022-10-12T23:51:40.037Z,96710.19
2022-10-12T23:54:05.853Z,96707.75
2022-10-12T23:56:31.658Z,96700.97
2022-10-12T23:58:57.679Z,96706.94
